Time;durP1;ratioP1;P1;durP2;ratioP2;P2;SDS_P1;SDS_P2;PMS_P1;PMS_P2;Temp;Humidity;BMP_temperature;BMP_pressure;BME280_temperature;BME280_humidity;BME280_pressure;Samples;Min_cycle;Max_cycle;Signal;HPM_P1;HPM_P2
2022/01/12 00:00:42;;;;;;;7.38;6.16;;;;;;;-3.28;60.88;101290.77;462014;114;922654;-74
2022/01/12 00:01:45;;;;;;;6.51;5.88;;;;;;;-3.27;61.07;101295.14;461417;112;922622;-75
2022/01/12 00:02:49;;;;;;;6.14;5.49;;;;;;;-3.24;61.33;101289.58;461469;112;930413;-74
2022/01/12 00:03:52;;;;;;;7.44;6.64;;;;;;;-3.20;61.40;101296.42;462288;111;922918;-74
2022/01/12 00:04:57;;;;;;;12.24;6.71;;;;;;;-3.18;60.79;101291.81;459877;112;925523;-74
2022/01/12 00:06:02;;;;;;;9.31;7.62;;;;;;;-3.17;60.86;101300.67;461217;112;927381;-74
2022/01/12 00:07:05;;;;;;;8.04;6.59;;;;;;;-3.19;60.47;101295.44;459664;112;922973;-74
2022/01/12 00:08:09;;;;;;;9.07;7.58;;;;;;;-3.22;59.91;101285.00;460781;111;922644;-75
2022/01/12 00:09:12;;;;;;;7.87;6.31;;;;;;;-3.27;59.89;101289.81;459847;112;930651;-75
2022/01/12 00:10:18;;;;;;;5.23;4.66;;;;;;;-3.29;59.98;101293.53;460086;113;930640;-76
2022/01/12 00:11:22;;;;;;;5.80;5.23;;;;;;;-3.30;60.25;101290.02;460851;113;923317;-74
2022/01/12 00:12:26;;;;;;;4.89;4.40;;;;;;;-3.29;60.01;101293.53;461653;113;930569;-74
2022/01/12 00:13:30;;;;;;;6.49;5.42;;;;;;;-3.28;60.11;101292.58;459908;113;922826;-74
2022/01/12 00:14:34;;;;;;;5.69;4.41;;;;;;;-3.26;60.02;101288.00;460782;111;930618;-76
2022/01/12 00:15:38;;;;;;;5.21;4.42;;;;;;;-3.27;59.82;101295.14;460551;112;930424;-74
2022/01/12 00:16:46;;;;;;;5.19;4.68;;;;;;;-3.27;59.73;101294.29;460731;111;922823;-73
2022/01/12 00:17:47;;;;;;;5.46;4.93;;;;;;;-3.26;59.57;101290.67;460620;114;930499;-75
2022/01/12 00:18:50;;;;;;;6.17;4.97;;;;;;;-3.27;59.71;101289.81;460875;112;922577;-74
2022/01/12 00:19:53;;;;;;;5.32;4.83;;;;;;;-3.29;59.46;101291.72;461103;114;923010;-78
2022/01/12 00:20:57;;;;;;;5.07;4.57;;;;;;;-3.31;59.13;101300.81;459844;112;922574;-76
2022/01/12 00:22:00;;;;;;;5.33;4.28;;;;;;;-3.36;58.87;101295.78;460964;112;930680;-75
2022/01/12 00:23:03;;;;;;;4.24;3.82;;;;;;;-3.44;58.60;101291.00;461606;112;922807;-74
2022/01/12 00:24:08;;;;;;;4.83;4.42;;;;;;;-3.52;59.64;101293.34;462022;112;922580;-74
2022/01/12 00:25:26;;;;;;;5.12;4.61;;;;;;;-3.58;59.15;101296.43;461519;112;930402;-74
2022/01/12 00:26:38;;;;;;;5.33;4.04;;;;;;;-3.62;59.47;101291.43;459682;112;930553;-74
2022/01/12 00:33:14;;;;;;;6.72;5.69;;;;;;;-3.44;60.30;101287.48;461301;111;922812;-75
2022/01/12 00:34:17;;;;;;;5.29;4.78;;;;;;;-3.39;59.90;101301.34;460229;112;923330;-73
2022/01/12 00:35:21;;;;;;;5.53;4.97;;;;;;;-3.38;59.92;101289.72;460293;114;922896;-73
2022/01/12 00:36:24;;;;;;;5.45;4.72;;;;;;;-3.40;59.56;101294.30;461037;112;922588;-74
2022/01/12 00:37:29;;;;;;;4.82;4.39;;;;;;;-3.42;59.21;101294.39;461318;112;922604;-75
2022/01/12 00:38:33;;;;;;;5.41;4.84;;;;;;;-3.48;58.98;101288.67;461628;112;922580;-74
2022/01/12 00:39:36;;;;;;;5.19;4.58;;;;;;;-3.52;59.16;101292.48;460960;112;923107;-74
2022/01/12 00:40:43;;;;;;;4.89;4.33;;;;;;;-3.56;59.12;101299.86;460546;112;922789;-74
2022/01/12 00:41:47;;;;;;;4.88;4.21;;;;;;;-3.59;59.18;101302.75;460875;113;930713;-74
2022/01/12 00:42:50;;;;;;;6.35;5.15;;;;;;;-3.60;59.41;101300.18;461188;114;922604;-73
2022/01/12 00:43:59;;;;;;;6.72;5.62;;;;;;;-3.61;59.57;101299.33;461440;113;922770;-74
2022/01/12 00:45:04;;;;;;;4.97;4.46;;;;;;;-3.58;59.63;101295.58;461170;113;923479;-76
2022/01/12 00:46:08;;;;;;;7.33;5.52;;;;;;;-3.58;59.42;101295.58;462739;111;922623;-74
2022/01/12 00:47:11;;;;;;;5.51;5.01;;;;;;;-3.60;59.27;101303.70;462755;111;922651;-73
2022/01/12 00:48:17;;;;;;;6.97;5.14;;;;;;;-3.61;59.26;101306.47;462590;113;922493;-74
2022/01/12 00:49:20;;;;;;;5.87;4.75;;;;;;;-3.62;59.22;101305.61;460644;111;923122;-74
2022/01/12 00:50:24;;;;;;;5.87;5.31;;;;;;;-3.63;59.26;101303.90;461843;113;923199;-74
2022/01/12 00:51:31;;;;;;;5.74;4.92;;;;;;;-3.62;59.47;101304.75;461216;112;930500;-74
2022/01/12 00:52:34;;;;;;;5.84;4.67;;;;;;;-3.58;59.79;101304.42;459227;113;930364;-74
2022/01/12 00:53:39;;;;;;;5.75;5.01;;;;;;;-3.51;59.74;101302.19;459480;111;922655;-73
2022/01/12 00:54:42;;;;;;;5.25;4.77;;;;;;;-3.49;59.65;101301.14;460594;112;922478;-73
2022/01/12 00:55:45;;;;;;;5.90;5.32;;;;;;;-3.43;59.68;101300.71;460885;112;922498;-74
2022/01/12 00:56:49;;;;;;;5.17;4.67;;;;;;;-3.41;59.54;101304.10;460410;114;922557;-74
2022/01/12 00:57:55;;;;;;;6.39;5.16;;;;;;;-3.38;59.51;101311.05;461177;111;930621;-74
2022/01/12 00:58:57;;;;;;;4.63;4.12;;;;;;;-3.38;58.95;101303.91;461463;112;922718;-73
2022/01/12 01:00:01;;;;;;;5.35;4.60;;;;;;;-3.39;58.95;101296.86;460896;112;923018;-73
2022/01/12 01:01:04;;;;;;;5.33;4.79;;;;;;;-3.40;58.92;101294.30;461035;112;930516;-74
2022/01/12 01:02:08;;;;;;;5.63;5.03;;;;;;;-3.41;59.02;101298.77;460854;112;922577;-74
2022/01/12 01:03:11;;;;;;;5.37;4.87;;;;;;;-3.41;58.94;101301.44;461164;111;930986;-73
2022/01/12 01:04:15;;;;;;;4.65;4.07;;;;;;;-3.40;58.99;101305.81;462158;112;930541;-75
2022/01/12 01:05:21;;;;;;;4.74;4.30;;;;;;;-3.39;59.04;101306.67;462421;112;922720;-74
2022/01/12 01:06:24;;;;;;;5.68;4.91;;;;;;;-3.37;58.76;101299.43;461370;112;922798;-74
2022/01/12 01:07:27;;;;;;;6.06;5.11;;;;;;;-3.40;58.54;101304.96;460295;112;922725;-74
2022/01/12 01:08:31;;;;;;;4.89;4.32;;;;;;;-3.44;58.55;101295.48;461656;111;922563;-74
2022/01/12 01:09:39;;;;;;;5.08;4.18;;;;;;;-3.49;58.70;101310.95;461900;112;922876;-74
2022/01/12 01:10:45;;;;;;;5.21;4.59;;;;;;;-3.54;58.70;101313.09;457534;114;922925;-74
2022/01/12 01:11:45;;;;;;;4.86;4.37;;;;;;;-3.58;58.60;101299.09;455763;114;923293;-74
2022/01/12 01:12:49;;;;;;;5.12;4.25;;;;;;;-3.61;58.69;101309.13;453103;114;923206;-74
2022/01/12 01:13:58;;;;;;;4.38;3.98;;;;;;;-3.65;59.38;101310.31;452455;114;922707;-74
2022/01/12 01:15:09;;;;;;;4.46;3.97;;;;;;;-3.68;59.53;101307.84;461692;111;922695;-73
2022/01/12 01:16:27;;;;;;;4.79;4.09;;;;;;;-3.68;59.31;101310.50;461166;113;922590;-73
2022/01/12 01:25:37;;;;;;;4.68;4.00;;;;;;;-3.70;59.88;101315.11;451433;115;923076;-72
2022/01/12 01:26:41;;;;;;;4.07;3.67;;;;;;;-3.74;60.33;101326.91;452447;114;922635;-74
2022/01/12 01:27:44;;;;;;;4.97;4.45;;;;;;;-3.79;60.94;101320.09;460519;112;930724;-73
2022/01/12 01:28:48;;;;;;;4.99;4.49;;;;;;;-3.81;61.23;101321.17;458871;113;930586;-74
2022/01/12 01:29:53;;;;;;;4.59;4.14;;;;;;;-3.81;61.85;101319.37;460187;113;930550;-72
2022/01/12 01:30:56;;;;;;;4.19;3.78;;;;;;;-3.78;62.37;101318.28;460311;113;923298;-74
2022/01/12 01:32:02;;;;;;;4.75;4.06;;;;;;;-3.72;62.16;101314.34;459770;113;922891;-74
2022/01/12 01:33:08;;;;;;;4.69;4.11;;;;;;;-3.69;61.19;101314.98;458781;113;922687;-74
2022/01/12 01:34:14;;;;;;;4.52;3.68;;;;;;;-3.68;61.33;101326.49;460022;114;930574;-75
2022/01/12 01:35:19;;;;;;;4.34;3.79;;;;;;;-3.68;60.91;101329.16;460259;115;922715;-73
2022/01/12 01:36:27;;;;;;;5.11;4.59;;;;;;;-3.71;61.08;101318.73;459091;113;922496;-74
2022/01/12 01:37:28;;;;;;;5.46;4.18;;;;;;;-3.73;60.61;101320.63;459769;113;922804;-73
2022/01/12 01:38:32;;;;;;;4.35;3.62;;;;;;;-3.72;60.74;101327.67;460193;113;923352;-74
2022/01/12 01:39:37;;;;;;;4.12;3.61;;;;;;;-3.72;60.59;101320.53;451872;117;930755;-73
2022/01/12 01:40:42;;;;;;;4.56;4.11;;;;;;;-3.72;60.62;101322.34;451643;115;923168;-74
2022/01/12 01:41:52;;;;;;;4.13;3.72;;;;;;;-3.70;59.77;101326.62;459308;113;922551;-74
2022/01/12 01:43:15;;;;;;;3.96;3.57;;;;;;;-3.68;59.96;101329.16;448981;116;923124;-73
2022/01/12 01:53:29;;;;;;;3.81;3.44;;;;;;;-3.91;60.31;101342.23;459448;113;922736;-73
2022/01/12 01:54:33;;;;;;;4.48;3.78;;;;;;;-3.84;60.42;101329.36;459999;113;922639;-73
2022/01/12 01:55:37;;;;;;;4.26;3.86;;;;;;;-3.79;60.11;101343.22;460062;114;922746;-73
2022/01/12 01:56:41;;;;;;;4.38;3.84;;;;;;;-3.74;59.53;101334.91;460000;113;922751;-73
2022/01/12 01:57:45;;;;;;;3.73;3.39;;;;;;;-3.74;59.47;101329.58;459672;114;930549;-74
2022/01/12 01:58:49;;;;;;;3.88;3.50;;;;;;;-3.71;59.57;101340.04;459634;113;922640;-73
2022/01/12 01:59:54;;;;;;;3.44;3.14;;;;;;;-3.74;58.10;101329.58;459646;114;922565;-74
2022/01/12 02:00:57;;;;;;;3.81;3.38;;;;;;;-3.76;58.21;101337.70;460268;113;931062;-73
2022/01/12 02:02:00;;;;;;;3.83;3.06;;;;;;;-3.80;58.31;101337.03;448275;116;922722;-73
2022/01/12 02:03:04;;;;;;;3.77;3.40;;;;;;;-3.81;58.55;101335.35;447911;115;930540;-73
2022/01/12 02:04:16;;;;;;;3.67;3.36;;;;;;;-3.81;58.66;101332.69;459369;113;930371;-73
2022/01/12 02:05:19;;;;;;;3.35;3.02;;;;;;;-3.80;58.75;101341.50;459961;113;922557;-73
2022/01/12 02:06:26;;;;;;;3.46;3.16;;;;;;;-3.79;58.83;101332.56;459215;114;922505;-73
2022/01/12 02:07:31;;;;;;;3.99;3.36;;;;;;;-3.78;58.83;101347.59;456120;114;922619;-73
2022/01/12 02:08:38;;;;;;;5.23;3.79;;;;;;;-3.76;58.89;101340.36;456674;113;922977;-71
2022/01/12 02:09:55;;;;;;;3.57;3.27;;;;;;;-3.75;58.64;101339.41;457628;113;922550;-74
2022/01/12 02:11:00;;;;;;;3.81;3.42;;;;;;;-3.74;58.20;101343.75;458399;113;922503;-72
2022/01/12 02:12:05;;;;;;;3.78;3.37;;;;;;;-3.74;58.18;101353.55;450171;115;923030;-73
2022/01/12 02:13:09;;;;;;;4.42;3.41;;;;;;;-3.76;58.21;101352.83;451440;115;923110;-73
2022/01/12 02:14:13;;;;;;;3.57;3.27;;;;;;;-3.77;58.31;101353.78;459716;114;922834;-73
2022/01/12 02:15:21;;;;;;;4.02;3.39;;;;;;;-3.81;58.53;101351.34;459434;113;922594;-74
2022/01/12 02:16:37;;;;;;;4.57;3.90;;;;;;;-3.77;58.53;101351.11;459425;113;922525;-73
2022/01/12 02:17:40;;;;;;;4.01;3.42;;;;;;;-3.75;58.47;101351.87;458102;113;922632;-71
2022/01/12 02:19:05;;;;;;;3.90;3.48;;;;;;;-3.77;57.98;101354.63;459297;113;922851;-73
2022/01/12 02:35:11;;;;;;;3.97;3.61;;;;;;;-3.80;58.10;101347.69;455655;113;922613;-74
2022/01/12 02:36:28;;;;;;;5.97;4.18;;;;;;;-3.95;58.43;101361.20;461305;112;922647;-71
2022/01/12 02:40:14;;;;;;;4.85;3.69;;;;;;;-4.07;65.17;101364.67;461157;114;922666;-72
2022/01/12 02:41:17;;;;;;;5.60;3.50;;;;;;;-4.09;66.74;101361.28;461950;112;922658;-72
2022/01/12 02:42:22;;;;;;;4.41;4.01;;;;;;;-4.07;67.36;101365.53;462285;113;922532;-71
2022/01/12 02:50:34;;;;;;;4.49;4.01;;;;;;;-4.05;67.60;101363.63;461077;114;922543;-71
2022/01/12 02:53:54;;;;;;;3.90;3.31;;;;;;;-3.91;64.72;101371.54;454895;112;922595;-75
2022/01/12 02:54:57;;;;;;;3.69;3.11;;;;;;;-3.97;64.09;101371.95;463105;112;922852;-74
2022/01/12 02:56:01;;;;;;;3.28;2.94;;;;;;;-4.04;64.04;101376.00;462119;113;930453;-73
2022/01/12 02:57:04;;;;;;;5.55;3.54;;;;;;;-4.07;63.14;101368.20;462303;112;925698;-74
2022/01/12 02:58:07;;;;;;;4.84;3.46;;;;;;;-4.10;63.26;101373.73;462233;113;930497;-72
2022/01/12 02:59:11;;;;;;;3.78;3.23;;;;;;;-4.09;63.03;101379.92;462386;111;930311;-73
2022/01/12 03:00:18;;;;;;;4.10;3.70;;;;;;;-4.08;62.83;101371.81;461585;112;922672;-74
2022/01/12 03:01:47;;;;;;;3.85;3.55;;;;;;;-4.06;62.63;101374.38;460969;112;922655;-74
2022/01/12 03:02:33;;;;;;;4.67;4.12;;;;;;;-4.02;61.84;101376.73;458190;113;923267;-74
2022/01/12 03:03:39;;;;;;;3.98;3.43;;;;;;;-3.99;61.43;101373.02;461245;112;922542;-73
2022/01/12 03:04:53;;;;;;;4.79;3.67;;;;;;;-3.98;60.64;101370.27;462441;112;922513;-74
2022/01/12 03:06:03;;;;;;;3.82;3.51;;;;;;;-3.98;60.46;101370.27;452589;116;922813;-74
2022/01/12 03:07:07;;;;;;;3.77;3.41;;;;;;;-4.01;59.99;101375.78;452331;113;922660;-73
2022/01/12 03:08:10;;;;;;;3.76;3.28;;;;;;;-4.01;60.12;101375.78;461254;112;922665;-74
2022/01/12 03:09:14;;;;;;;4.39;3.40;;;;;;;-4.02;60.03;101376.73;462842;111;922536;-73
2022/01/12 03:10:18;;;;;;;3.87;3.02;;;;;;;-4.05;59.32;101382.27;463471;112;922520;-73
2022/01/12 03:11:22;;;;;;;3.34;3.00;;;;;;;-4.08;59.16;101376.31;453337;115;922648;-73
2022/01/12 03:12:27;;;;;;;5.02;4.51;;;;;;;-4.12;59.28;101378.30;454523;114;922687;-73
2022/01/12 03:13:31;;;;;;;3.47;2.91;;;;;;;-4.16;59.23;101384.80;462378;112;922599;-73
2022/01/12 03:14:34;;;;;;;3.39;3.09;;;;;;;-4.18;59.31;101384.03;460985;112;922674;-73
2022/01/12 03:15:40;;;;;;;3.70;3.30;;;;;;;-4.19;59.27;101378.83;462619;112;922485;-74
2022/01/12 03:16:43;;;;;;;3.14;2.71;;;;;;;-4.18;59.49;101383.17;461224;113;922656;-74
2022/01/12 03:17:48;;;;;;;3.99;3.41;;;;;;;-4.19;59.54;101371.70;460797;112;923102;-74
2022/01/12 03:18:55;;;;;;;4.11;3.34;;;;;;;-4.18;59.27;101378.70;460870;113;922521;-74
2022/01/12 03:19:58;;;;;;;4.04;3.24;;;;;;;-4.17;59.00;101380.41;462201;112;923814;-73
2022/01/12 03:21:02;;;;;;;3.75;3.38;;;;;;;-4.18;58.85;101372.52;462710;112;923168;-72
2022/01/12 03:22:05;;;;;;;4.28;3.22;;;;;;;-4.22;58.77;101379.87;460816;113;922667;-73
2022/01/12 03:23:09;;;;;;;4.99;4.49;;;;;;;-4.26;58.80;101383.70;455074;114;930465;-71
2022/01/12 03:24:12;;;;;;;4.49;3.83;;;;;;;-4.35;62.00;101385.13;454991;114;930633;-73
2022/01/12 03:25:15;;;;;;;4.44;3.61;;;;;;;-4.46;64.20;101381.45;461588;112;930656;-73
2022/01/12 03:26:23;;;;;;;5.07;4.57;;;;;;;-4.56;64.66;101390.98;460967;112;922780;-73
2022/01/12 03:27:28;;;;;;;4.64;4.14;;;;;;;-4.68;63.96;101382.84;461654;112;922922;-73
2022/01/12 03:28:33;;;;;;;4.84;4.20;;;;;;;-4.75;65.79;101388.67;460324;112;923728;-73
2022/01/12 03:29:36;;;;;;;5.11;4.01;;;;;;;-4.82;66.76;101388.20;460578;112;922704;-72
2022/01/12 03:30:53;;;;;;;4.38;3.98;;;;;;;-4.85;66.58;101390.21;452467;114;922389;-73
2022/01/12 03:31:58;;;;;;;4.27;3.51;;;;;;;-4.89;67.16;101392.19;454322;114;923925;-74
2022/01/12 03:33:10;;;;;;;6.66;3.74;;;;;;;-4.91;67.88;101390.59;461275;113;922730;-74
2022/01/12 03:34:09;;;;;;;4.24;3.74;;;;;;;-4.92;67.84;101397.72;460273;112;922495;-74
2022/01/12 03:35:24;;;;;;;4.33;3.95;;;;;;;-4.90;68.04;101385.16;459792;113;922854;-74
2022/01/12 03:37:53;;;;;;;4.34;3.92;;;;;;;-4.85;67.23;101395.53;460004;112;923734;-73
2022/01/12 03:38:46;;;;;;;4.49;3.97;;;;;;;-4.81;67.04;101397.04;449429;114;922726;-74
2022/01/12 03:39:50;;;;;;;4.67;4.20;;;;;;;-4.76;66.22;101401.11;451737;114;923221;-73
2022/01/12 03:40:53;;;;;;;3.99;3.62;;;;;;;-4.72;65.41;101402.63;458350;114;930648;-75
2022/01/12 03:41:57;;;;;;;5.06;3.98;;;;;;;-4.70;64.99;101397.21;459645;112;930547;-74
2022/01/12 03:43:00;;;;;;;5.91;4.31;;;;;;;-4.70;64.57;101397.21;460289;112;930523;-74
2022/01/12 03:44:07;;;;;;;4.79;4.37;;;;;;;-4.70;63.64;101403.39;460189;112;922634;-73
2022/01/12 03:45:10;;;;;;;4.08;3.69;;;;;;;-4.69;63.22;101397.13;460199;113;930414;-73
2022/01/12 03:46:18;;;;;;;5.33;4.09;;;;;;;-4.70;62.66;101394.55;460990;112;923795;-73
2022/01/12 03:47:21;;;;;;;5.54;3.87;;;;;;;-4.72;62.95;101393.78;458313;113;922648;-73
2022/01/12 03:48:25;;;;;;;3.91;3.50;;;;;;;-4.75;62.88;101393.99;460014;112;922976;-73
2022/01/12 03:49:28;;;;;;;5.66;4.56;;;;;;;-4.78;62.59;101396.83;459828;114;923175;-73
2022/01/12 03:50:32;;;;;;;4.01;3.61;;;;;;;-4.81;62.91;101397.04;460513;112;931066;-73
2022/01/12 03:51:35;;;;;;;4.38;3.74;;;;;;;-4.83;62.49;101404.25;460152;112;930515;-74
2022/01/12 03:52:38;;;;;;;4.08;3.58;;;;;;;-4.86;62.45;101402.66;460709;114;922612;-73
2022/01/12 03:53:43;;;;;;;4.43;3.86;;;;;;;-4.89;63.64;101405.48;461541;112;923272;-74
2022/01/12 03:54:47;;;;;;;6.54;4.75;;;;;;;-4.90;63.40;101398.45;452914;115;923335;-73
2022/01/12 03:55:50;;;;;;;5.26;4.50;;;;;;;-4.89;62.79;101401.97;452418;114;930428;-73
2022/01/12 03:56:54;;;;;;;5.62;4.95;;;;;;;-4.89;61.79;101392.19;451366;116;922967;-74
2022/01/12 03:57:57;;;;;;;6.09;4.81;;;;;;;-4.89;61.37;101399.31;451826;116;922675;-74
2022/01/12 03:59:01;;;;;;;5.29;4.80;;;;;;;-4.92;61.90;101389.73;450740;115;930822;-74
2022/01/12 04:00:05;;;;;;;5.82;4.66;;;;;;;-4.93;61.53;101400.46;452445;116;922785;-74
2022/01/12 04:01:11;;;;;;;6.43;4.38;;;;;;;-4.94;60.94;101401.41;449406;116;923055;-73
2022/01/12 04:02:14;;;;;;;5.51;4.48;;;;;;;-4.96;60.73;101395.34;449186;116;922618;-73
2022/01/12 04:03:18;;;;;;;4.72;4.30;;;;;;;-5.00;60.36;101392.01;450828;115;922674;-73
2022/01/12 04:04:30;;;;;;;5.15;4.65;;;;;;;-5.03;60.32;101396.67;450978;114;922476;-74
2022/01/12 04:08:19;;;;;;;4.46;4.06;;;;;;;-5.07;60.65;101402.16;448314;115;922586;-73
2022/01/12 04:09:23;;;;;;;4.32;3.93;;;;;;;-5.07;60.90;101403.97;450603;116;923094;-73
2022/01/12 04:10:27;;;;;;;4.06;3.65;;;;;;;-5.07;60.69;101401.30;449785;116;922703;-74
2022/01/12 04:11:30;;;;;;;4.28;3.88;;;;;;;-5.05;60.94;101397.61;450492;115;922673;-74
2022/01/12 04:12:33;;;;;;;4.70;3.87;;;;;;;-5.00;61.15;101405.30;451556;114;922660;-73
2022/01/12 04:13:37;;;;;;;4.86;4.38;;;;;;;-4.93;61.00;101408.44;450812;115;922676;-72
2022/01/12 04:14:40;;;;;;;5.02;4.45;;;;;;;-4.92;60.47;101400.38;452222;116;922535;-72
2022/01/12 04:15:46;;;;;;;3.89;3.55;;;;;;;-4.93;60.89;101409.30;451539;114;922599;-73
2022/01/12 04:16:50;;;;;;;5.38;3.74;;;;;;;-4.95;61.85;101405.87;452748;115;930544;-74
2022/01/12 04:17:53;;;;;;;7.06;3.79;;;;;;;-5.00;62.08;101404.44;453212;114;922891;-73
2022/01/12 04:18:57;;;;;;;4.87;4.08;;;;;;;-5.06;62.70;101408.34;437569;120;931117;-73
2022/01/12 04:20:02;;;;;;;4.27;3.86;;;;;;;-5.10;62.58;101407.69;456485;114;930639;-73
2022/01/12 04:21:08;;;;;;;4.74;3.98;;;;;;;-5.14;62.15;101411.48;461124;112;930500;-76
2022/01/12 04:23:23;;;;;;;4.31;3.91;;;;;;;-5.18;61.65;101406.46;442409;119;923170;-73
2022/01/12 04:24:27;;;;;;;4.97;4.41;;;;;;;-5.21;61.45;101409.29;456888;114;924258;-74
2022/01/12 04:25:31;;;;;;;4.18;3.78;;;;;;;-5.22;61.53;101410.23;459384;112;930539;-73
2022/01/12 04:26:34;;;;;;;4.44;3.81;;;;;;;-5.23;61.24;101417.34;458918;113;922926;-74
2022/01/12 04:27:39;;;;;;;3.54;2.99;;;;;;;-5.20;61.52;101418.98;457861;114;922553;-73
2022/01/12 04:28:44;;;;;;;3.62;3.24;;;;;;;-5.17;61.56;101413.46;459030;112;930696;-73
2022/01/12 04:29:48;;;;;;;4.56;4.08;;;;;;;-5.12;61.42;101414.03;451914;115;930737;-73
2022/01/12 04:30:52;;;;;;;6.53;5.52;;;;;;;-5.08;60.61;101428.87;443472;117;922784;-74
2022/01/12 04:31:56;;;;;;;5.96;5.13;;;;;;;-5.08;59.93;101420.89;449086;114;930718;-73
2022/01/12 04:32:59;;;;;;;7.58;5.67;;;;;;;-5.09;60.14;101419.17;457715;113;922495;-73
2022/01/12 04:34:04;;;;;;;6.91;4.84;;;;;;;-5.07;59.75;101422.58;457086;113;922509;-73
2022/01/12 04:35:07;;;;;;;4.77;4.31;;;;;;;-5.07;59.81;101415.45;457959;113;922556;-72
2022/01/12 04:36:12;;;;;;;4.49;3.95;;;;;;;-5.06;59.64;101417.17;458304;114;922610;-72
2022/01/12 04:37:16;;;;;;;4.43;3.98;;;;;;;-5.04;59.43;101419.74;458337;114;923195;-72
2022/01/12 04:38:21;;;;;;;4.83;3.94;;;;;;;-5.06;58.59;101424.29;458325;112;923169;-73
2022/01/12 04:39:24;;;;;;;4.46;4.10;;;;;;;-5.10;58.73;101422.78;458169;113;922689;-72
2022/01/12 04:40:29;;;;;;;4.72;4.32;;;;;;;-5.15;58.85;101425.73;459096;113;922920;-72
2022/01/12 04:41:33;;;;;;;3.88;3.42;;;;;;;-5.20;58.38;101434.93;459253;114;923556;-72
2022/01/12 04:42:36;;;;;;;5.67;3.28;;;;;;;-5.25;58.39;101429.04;457435;113;922618;-73
2022/01/12 04:43:43;;;;;;;3.83;3.26;;;;;;;-5.29;58.49;101417.72;458001;113;930561;-73
2022/01/12 04:44:48;;;;;;;5.31;4.32;;;;;;;-5.31;58.67;101418.78;458904;114;930600;-71
2022/01/12 04:47:06;;;;;;;6.71;3.72;;;;;;;-5.38;58.52;101426.27;458689;112;922408;-72
2022/01/12 04:48:20;;;;;;;4.12;3.44;;;;;;;-5.40;58.43;101429.98;457586;113;922688;-71
2022/01/12 04:50:37;;;;;;;4.07;3.53;;;;;;;-5.49;58.31;101426.05;457493;113;922755;-73
2022/01/12 04:51:40;;;;;;;3.71;3.36;;;;;;;-5.52;58.50;101420.94;457288;113;923137;-73
2022/01/12 04:52:44;;;;;;;5.57;4.10;;;;;;;-5.53;58.50;101440.47;458178;113;923002;-72
2022/01/12 04:53:48;;;;;;;6.29;3.69;;;;;;;-5.56;60.06;101422.04;457381;114;925683;-73
2022/01/12 04:54:52;;;;;;;4.28;3.88;;;;;;;-5.59;61.00;101430.20;453561;114;923231;-73
2022/01/12 04:55:58;;;;;;;5.01;3.97;;;;;;;-5.61;61.18;101424.98;453182;113;922786;-73
2022/01/12 04:57:02;;;;;;;4.85;4.28;;;;;;;-5.61;61.45;101432.95;458133;114;923127;-75
2022/01/12 04:58:06;;;;;;;5.90;4.68;;;;;;;-5.59;61.47;101433.72;458133;114;923041;-73
2022/01/12 04:59:09;;;;;;;7.56;4.90;;;;;;;-5.60;61.23;101431.15;449950;116;923317;-74
2022/01/12 05:00:16;;;;;;;5.45;4.50;;;;;;;-5.60;60.91;101428.49;451215;113;922772;-72
2022/01/12 05:01:24;;;;;;;5.48;4.93;;;;;;;-5.60;60.73;101431.15;457361;113;922730;-74
2022/01/12 05:08:12;;;;;;;5.76;5.16;;;;;;;-5.54;59.21;101434.30;458670;113;922719;-73
2022/01/12 05:09:14;;;;;;;5.29;4.39;;;;;;;-5.58;59.18;101440.75;456991;114;922750;-75
2022/01/12 05:12:56;;;;;;;5.07;3.79;;;;;;;-5.62;59.21;101446.31;457664;113;922616;-73
2022/01/12 05:14:02;;;;;;;5.96;4.66;;;;;;;-5.61;59.34;101446.23;457676;112;922563;-74
2022/01/12 05:15:13;;;;;;;6.63;5.64;;;;;;;-5.58;59.36;101448.72;458035;114;922487;-72
2022/01/12 05:16:12;;;;;;;5.66;4.54;;;;;;;-5.54;59.25;101441.41;457505;113;922723;-74
2022/01/12 05:17:16;;;;;;;5.38;4.44;;;;;;;-5.52;58.82;101448.36;457916;114;922911;-73
2022/01/12 05:18:19;;;;;;;8.53;5.50;;;;;;;-5.54;57.88;101450.24;449330;116;922937;-72
2022/01/12 05:19:25;;;;;;;10.04;4.90;;;;;;;-5.63;57.69;101449.94;449597;117;922697;-75
2022/01/12 05:20:29;;;;;;;10.86;5.13;;;;;;;-5.69;57.87;101455.61;442044;115;922669;-73
2022/01/12 05:21:33;;;;;;;8.86;5.36;;;;;;;-5.73;58.02;101459.40;441930;116;923037;-74
2022/01/12 05:22:37;;;;;;;7.39;4.54;;;;;;;-5.77;57.70;101455.19;441766;117;922649;-72
2022/01/12 05:23:40;;;;;;;10.04;5.23;;;;;;;-5.81;57.67;101462.48;431944;121;923181;-73
2022/01/12 05:24:44;;;;;;;6.02;4.39;;;;;;;-5.85;57.56;101463.62;440671;116;930716;-73
2022/01/12 05:25:51;;;;;;;10.04;4.62;;;;;;;-5.90;57.21;101466.55;447557;116;922693;-73
2022/01/12 05:26:55;;;;;;;6.92;4.30;;;;;;;-5.97;57.12;101467.00;449784;115;922601;-74
2022/01/12 05:27:58;;;;;;;5.38;4.09;;;;;;;-6.04;57.03;101462.98;450375;117;922512;-74
2022/01/12 05:29:02;;;;;;;4.91;4.28;;;;;;;-6.12;57.32;101468.72;451014;115;930499;-75
2022/01/12 05:30:06;;;;;;;5.59;3.96;;;;;;;-6.15;57.43;101468.90;454944;114;922658;-73
2022/01/12 05:31:11;;;;;;;5.62;4.32;;;;;;;-6.17;57.67;101469.91;455187;113;922634;-73
2022/01/12 05:32:15;;;;;;;7.11;4.79;;;;;;;-6.15;57.70;101468.04;455497;114;922453;-73
2022/01/12 05:33:20;;;;;;;5.53;4.55;;;;;;;-6.15;57.62;101473.35;456096;115;922779;-72
2022/01/12 05:34:26;;;;;;;6.62;5.81;;;;;;;-6.16;57.43;101471.63;446320;117;931023;-75
2022/01/12 05:35:32;;;;;;;6.49;5.26;;;;;;;-6.20;57.55;101472.76;442224;116;923283;-73
2022/01/12 05:36:35;;;;;;;8.34;5.75;;;;;;;-6.23;57.57;101471.15;452834;115;923218;-71
2022/01/12 05:37:40;;;;;;;7.52;5.53;;;;;;;-6.25;57.58;101475.67;449052;114;922625;-74
2022/01/12 05:38:44;;;;;;;7.09;5.82;;;;;;;-6.26;57.70;101475.75;451339;115;922699;-74
2022/01/12 05:39:48;;;;;;;7.26;5.55;;;;;;;-6.28;57.65;101475.83;453562;115;922847;-73
2022/01/12 05:40:56;;;;;;;7.39;5.44;;;;;;;-6.26;57.87;101481.06;451549;115;923045;-73
2022/01/12 05:42:00;;;;;;;7.21;4.63;;;;;;;-6.27;57.78;101484.64;454730;115;922542;-73
2022/01/12 05:43:04;;;;;;;4.37;3.97;;;;;;;-6.29;57.65;101481.24;454282;114;922759;-70
2022/01/12 05:44:08;;;;;;;8.77;4.79;;;;;;;-6.32;57.75;101484.91;446287;115;922582;-73
2022/01/12 05:45:12;;;;;;;5.69;4.44;;;;;;;-6.32;58.11;101485.77;438431;115;922631;-74
2022/01/12 05:46:21;;;;;;;4.11;3.63;;;;;;;-6.34;58.12;101476.20;445203;116;930608;-74
2022/01/12 05:49:34;;;;;;;4.76;3.96;;;;;;;-6.40;58.11;101487.15;452616;115;922438;-74
2022/01/12 05:50:03;;;;;;;5.83;4.74;;;;;;;-6.56;58.17;101494.23;453529;114;922819;-74
2022/01/12 05:51:28;;;;;;;7.70;4.18;;;;;;;-6.61;58.44;101490.95;447226;116;922703;-73
2022/01/12 05:52:31;;;;;;;6.21;4.77;;;;;;;-6.61;58.70;101496.25;454572;115;930301;-75
2022/01/12 05:53:35;;;;;;;5.09;4.17;;;;;;;-6.57;58.81;101492.52;455784;115;923139;-74
2022/01/12 05:54:38;;;;;;;7.31;5.72;;;;;;;-6.55;58.75;101496.78;455783;115;922502;-75
2022/01/12 05:55:42;;;;;;;8.25;4.90;;;;;;;-6.53;58.45;101504.66;456162;114;922981;-75
2022/01/12 05:56:47;;;;;;;7.96;5.07;;;;;;;-6.54;59.12;101497.64;453799;113;930552;-74
2022/01/12 05:57:50;;;;;;;8.02;5.58;;;;;;;-6.57;59.50;101501.33;451192;115;930624;-73
2022/01/12 05:58:54;;;;;;;7.85;5.14;;;;;;;-6.59;59.15;101499.69;449488;116;923121;-74
2022/01/12 05:59:58;;;;;;;11.78;6.51;;;;;;;-6.60;59.26;101496.17;448924;115;922619;-74
2022/01/12 06:01:03;;;;;;;8.91;5.31;;;;;;;-6.61;59.20;101494.45;449883;116;930560;-72
2022/01/12 06:02:07;;;;;;;11.04;5.56;;;;;;;-6.60;59.10;101500.63;449328;114;922721;-72
2022/01/12 06:03:10;;;;;;;8.68;6.06;;;;;;;-6.60;59.01;101500.63;443167;116;922723;-74
2022/01/12 06:04:14;;;;;;;7.14;5.25;;;;;;;-6.61;58.91;101494.45;441900;116;922938;-75
2022/01/12 06:05:19;;;;;;;7.72;5.20;;;;;;;-6.63;58.59;101499.02;443378;117;930853;-74
2022/01/12 06:06:25;;;;;;;5.36;4.19;;;;;;;-6.62;58.96;101502.52;447712;117;930655;-74